Elm Grove, Wisconsin
Current Conditions -  °F | °C
As of 6:45 PM on Sunday 21 Dec 2014 (Local Time) from KMWC Reporting Station
Overcast Overcast  
Wind Chill: -3°   Ceiling: 3300
Heat Index:   Visibility: 7mi
Dew Point: -2°   Wind: 13mph
Humidity: 75%   Direction: 160°SSE
Pressure: 30.06"   Gusts: NA
Location:  43.05°N, 88.08°W
Report Text: KMWC 220045Z AUTO 16011KT 7SM OVC033 02/M02 A3006
Loading
Personal Weather Stations






























Interactive Weather Map New forecast layout! Learn more

10-Day Weather Forecast

Advertisements
Track Severe Weather on mobile